createdAt,value
2023-02-07T00:00:50.029Z,98170.75
2023-02-07T00:03:16.786Z,98161.25
2023-02-07T00:05:43.471Z,98166.44
2023-02-07T00:08:10.229Z,98163.88
2023-02-07T00:10:36.902Z,98171.69
2023-02-07T00:13:06.243Z,98167.41
2023-02-07T00:15:33.057Z,98166.47
2023-02-07T00:17:59.804Z,98166.44
2023-02-07T00:20:26.483Z,98181.13
2023-02-07T00:22:55.312Z,98168.19
2023-02-07T00:25:22.557Z,98178.50
2023-02-07T00:27:49.411Z,98172.47
2023-02-07T00:30:16.451Z,98172.47
2023-02-07T00:32:43.186Z,98179.38
2023-02-07T00:35:09.922Z,98175.97
2023-02-07T00:37:36.808Z,98184.63
2023-02-07T00:40:03.956Z,98180.34
2023-02-07T00:42:30.631Z,98176.91
2023-02-07T00:47:51.534Z,98182.09
2023-02-07T00:50:18.300Z,98176.94
2023-02-07T00:52:44.950Z,98180.41
2023-02-07T00:55:11.538Z,98187.34
2023-02-07T00:57:38.207Z,98183.03
2023-02-07T01:00:05.319Z,98189.06
2023-02-07T01:02:32.011Z,98180.41
2023-02-07T01:05:00.314Z,98181.28
2023-02-07T01:07:26.972Z,98183.84
2023-02-07T01:09:53.657Z,98181.28
2023-02-07T01:12:20.313Z,98179.56
2023-02-07T01:14:46.982Z,98182.16
2023-02-07T01:17:13.597Z,98191.63
2023-02-07T01:19:40.236Z,98199.41
2023-02-07T01:25:57.788Z,98194.25
2023-02-07T01:28:24.440Z,98196.84
2023-02-07T01:30:51.143Z,98187.38
2023-02-07T01:33:17.864Z,98195.13
2023-02-07T01:35:47.112Z,98199.44
2023-02-07T01:38:13.973Z,98190.81
2023-02-07T01:40:40.676Z,98182.19
2023-02-07T01:43:07.528Z,98182.19
2023-02-07T01:45:38.621Z,98179.59
2023-02-07T01:48:12.937Z,98179.63
2023-02-07T01:50:43.498Z,98170.13
2023-02-07T01:53:14.414Z,98180.47
2023-02-07T01:55:43.060Z,98183.06
2023-02-07T01:58:09.839Z,98176.16
2023-02-07T02:00:37.376Z,98184.78
2023-02-07T02:03:05.068Z,98184.78
2023-02-07T02:05:33.795Z,98192.53
2023-02-07T02:08:00.435Z,98199.44
2023-02-07T02:13:41.870Z,98212.41
2023-02-07T02:16:20.892Z,98208.94
2023-02-07T02:19:25.087Z,98211.50
2023-02-07T02:22:39.290Z,98216.69
2023-02-07T02:25:25.189Z,98213.25
2023-02-07T02:28:10.177Z,98211.56
2023-02-07T02:30:49.117Z,98214.13
2023-02-07T02:33:44.159Z,98216.75
2023-02-07T02:36:49.277Z,98221.03
2023-02-07T02:39:23.343Z,98222.78
2023-02-07T02:42:44.332Z,98225.38
2023-02-07T02:45:13.232Z,98232.25
2023-02-07T02:47:44.117Z,98232.25
2023-02-07T02:50:19.784Z,98234.84
2023-02-07T02:52:50.950Z,98229.66
2023-02-07T02:55:27.993Z,98230.56
2023-02-07T02:58:42.446Z,98221.09
2023-02-07T03:01:29.171Z,98221.91
2023-02-07T03:04:04.482Z,98215.06
2023-02-07T03:06:31.076Z,98209.91
2023-02-07T03:09:06.220Z,98215.06
2023-02-07T03:11:42.018Z,98214.22
2023-02-07T03:17:34.740Z,98217.66
2023-02-07T03:20:07.028Z,98227.13
2023-02-07T03:22:35.037Z,98224.53
2023-02-07T03:25:03.278Z,98224.56
2023-02-07T03:27:33.358Z,98208.19
2023-02-07T03:30:05.120Z,98206.47
2023-02-07T03:32:37.086Z,98204.72
2023-02-07T03:35:09.510Z,98207.31
2023-02-07T03:37:41.648Z,98204.75
2023-02-07T03:40:10.156Z,98208.19
2023-02-07T03:43:15.142Z,98187.53
2023-02-07T03:45:42.195Z,98184.09
2023-02-07T03:48:09.355Z,98180.66
2023-02-07T03:50:36.032Z,98173.75
2023-02-07T03:53:02.742Z,98166.00
2023-02-07T03:55:29.506Z,98172.91
2023-02-07T03:57:56.186Z,98177.22
2023-02-07T04:00:22.926Z,98178.06
2023-02-07T04:02:49.720Z,98180.66
2023-02-07T04:05:16.704Z,98168.63
2023-02-07T04:07:43.356Z,98177.22
2023-02-07T04:10:11.095Z,98178.94
2023-02-07T04:12:37.968Z,98178.94
2023-02-07T04:17:45.335Z,98163.41
2023-02-07T04:20:12.814Z,98160.84
2023-02-07T04:22:39.525Z,98159.97
2023-02-07T04:25:06.696Z,98170.31
2023-02-07T04:27:33.412Z,98161.72
2023-02-07T04:30:00.168Z,98158.28
2023-02-07T04:32:26.859Z,98173.78
2023-02-07T04:37:46.557Z,98187.56
2023-02-07T04:40:13.170Z,98190.13
2023-02-07T04:42:39.779Z,98167.75
2023-02-07T04:45:06.955Z,98172.94
2023-02-07T04:48:27.351Z,98180.69
2023-02-07T04:51:57.234Z,98178.09
2023-02-07T04:57:02.083Z,98178.09
2023-02-07T04:59:28.862Z,98185.84
2023-02-07T05:01:55.592Z,98191.91
2023-02-07T05:04:22.302Z,98194.44
2023-02-07T05:06:49.121Z,98183.25
2023-02-07T05:09:15.839Z,98180.69
2023-02-07T05:11:42.484Z,98185.00
2023-02-07T05:14:09.255Z,98192.72
2023-02-07T05:16:36.023Z,98191.84
2023-02-07T05:19:02.893Z,98194.44
2023-02-07T05:21:29.568Z,98199.63
2023-02-07T05:23:56.222Z,98195.31
2023-02-07T05:26:22.919Z,98191.84
2023-02-07T05:28:49.543Z,98197.03
2023-02-07T05:31:16.338Z,98191.84
2023-02-07T05:33:43.031Z,98185.84
2023-02-07T05:36:09.998Z,98191.84
2023-02-07T05:38:36.780Z,98189.28
2023-02-07T05:41:03.497Z,98193.56
2023-02-07T05:43:30.167Z,98196.16
2023-02-07T05:45:56.864Z,98206.47
2023-02-07T05:48:23.625Z,98206.47
2023-02-07T05:50:50.272Z,98214.22
2023-02-07T05:53:16.955Z,98215.09
2023-02-07T05:55:43.554Z,98206.50
2023-02-07T05:58:10.376Z,98203.91
2023-02-07T06:00:37.028Z,98206.50
2023-02-07T06:03:03.995Z,98203.06
2023-02-07T06:05:32.056Z,98198.75
2023-02-07T06:07:59.726Z,98223.72
2023-02-07T06:10:26.377Z,98226.28
2023-02-07T06:12:53.164Z,98229.72
2023-02-07T06:15:19.851Z,98221.13
2023-02-07T06:17:47.559Z,98213.38
2023-02-07T06:20:14.265Z,98207.34
2023-02-07T06:22:40.954Z,98212.50
2023-02-07T06:27:50.420Z,98211.63
2023-02-07T06:30:17.149Z,98211.66
2023-02-07T06:32:43.970Z,98213.38
2023-02-07T06:35:10.600Z,98214.22
2023-02-07T06:37:37.440Z,98215.13
2023-02-07T06:40:04.884Z,98215.97
2023-02-07T06:42:31.723Z,98210.81
2023-02-07T06:44:58.481Z,98202.19
2023-02-07T06:47:25.188Z,98212.50
2023-02-07T06:49:51.857Z,98215.97
2023-02-07T06:52:18.604Z,98206.50
2023-02-07T06:54:45.242Z,98205.66
2023-02-07T06:57:11.884Z,98203.91
2023-02-07T06:59:38.571Z,98207.34
2023-02-07T07:02:05.381Z,98200.47
2023-02-07T07:04:32.092Z,98203.03
2023-02-07T07:06:58.746Z,98198.72
2023-02-07T07:09:25.461Z,98208.16
2023-02-07T07:11:52.093Z,98195.00
2023-02-07T07:16:35.804Z,98191.69
2023-02-07T07:21:40.406Z,98180.09
2023-02-07T07:24:07.245Z,98182.63
2023-02-07T07:26:48.503Z,98176.38
2023-02-07T07:29:17.011Z,98173.66
2023-02-07T07:31:43.876Z,98184.34
2023-02-07T07:34:10.554Z,98183.38
2023-02-07T07:36:37.198Z,98184.16
2023-02-07T07:39:04.251Z,98190.00
2023-02-07T07:41:31.055Z,98181.69
2023-02-07T07:43:57.746Z,98174.41
2023-02-07T07:46:24.402Z,98169.84
2023-02-07T07:48:51.328Z,98168.72
2023-02-07T07:51:17.953Z,98171.38
2023-02-07T07:53:44.567Z,98170.41
2023-02-07T07:56:11.192Z,98168.75
2023-02-07T08:01:17.284Z,98157.38
2023-02-07T08:03:43.955Z,98160.59
2023-02-07T08:06:10.907Z,98154.09
2023-02-07T08:08:37.671Z,98150.25
2023-02-07T08:11:06.973Z,98147.31
2023-02-07T08:13:33.627Z,98145.59
2023-02-07T08:18:42.677Z,98137.09
2023-02-07T08:21:10.659Z,98130.25
2023-02-07T08:23:37.777Z,98127.63
2023-02-07T08:26:05.096Z,98125.94
2023-02-07T08:28:32.085Z,98118.34
2023-02-07T08:31:03.637Z,98126.06
2023-02-07T08:33:30.552Z,98125.41
2023-02-07T08:35:57.363Z,98118.47
2023-02-07T08:38:24.387Z,98124.47
2023-02-07T08:40:51.049Z,98120.00
2023-02-07T08:43:17.858Z,98121.75
2023-02-07T08:45:48.472Z,98116.41
2023-02-07T08:48:16.019Z,98111.78
2023-02-07T08:50:42.670Z,98117.50
2023-02-07T08:53:10.200Z,98112.66
2023-02-07T08:55:39.920Z,98112.09
2023-02-07T08:58:06.690Z,98117.25
2023-02-07T09:00:35.505Z,98109.34
2023-02-07T09:03:03.997Z,98101.59
2023-02-07T09:08:14.155Z,98105.59
2023-02-07T09:10:41.279Z,98116.56
2023-02-07T09:13:08.127Z,98108.22
2023-02-07T09:15:34.744Z,98109.44
2023-02-07T09:19:55.650Z,98107.00
2023-02-07T09:23:46.548Z,98105.16
2023-02-07T09:26:18.560Z,98108.66
2023-02-07T09:28:45.342Z,98099.50
2023-02-07T09:31:13.881Z,98096.00
2023-02-07T09:33:41.366Z,98100.03
2023-02-07T09:36:20.384Z,98101.78
2023-02-07T09:38:47.229Z,98101.56
2023-02-07T09:41:36.950Z,98090.34
2023-02-07T09:44:12.611Z,98092.13
2023-02-07T09:47:02.592Z,98094.91
2023-02-07T09:49:39.180Z,98094.22
2023-02-07T09:52:12.434Z,98095.53
2023-02-07T09:54:42.447Z,98092.97
2023-02-07T09:57:25.719Z,98104.19
2023-02-07T09:59:54.473Z,98104.31
2023-02-07T10:02:38.622Z,98101.72
2023-02-07T10:05:16.929Z,98106.28
2023-02-07T10:07:46.142Z,98099.97
2023-02-07T10:10:18.220Z,98088.25
2023-02-07T10:13:08.612Z,98093.84
2023-02-07T10:15:36.203Z,98079.63
2023-02-07T10:18:29.964Z,98083.66
2023-02-07T10:21:13.604Z,98083.66
2023-02-07T10:24:22.207Z,98067.59
2023-02-07T10:26:54.791Z,98059.94
2023-02-07T10:29:52.628Z,98054.28
2023-02-07T10:32:24.327Z,98051.13
2023-02-07T10:34:55.421Z,98047.31
2023-02-07T10:37:27.261Z,98047.44
2023-02-07T10:40:04.679Z,98043.84
2023-02-07T10:42:36.329Z,98043.97
2023-02-07T10:45:03.965Z,98048.16
2023-02-07T10:47:36.629Z,98038.38
2023-02-07T10:50:12.049Z,98029.81
2023-02-07T10:52:50.080Z,98020.97
2023-02-07T10:55:19.717Z,98023.66
2023-02-07T10:58:02.789Z,98019.78
2023-02-07T11:00:34.470Z,98009.19
2023-02-07T11:03:20.711Z,98011.44
2023-02-07T11:06:08.091Z,97999.69
2023-02-07T11:11:29.698Z,98007.22
2023-02-07T11:14:03.852Z,98000.34
2023-02-07T11:16:31.301Z,98005.47
2023-02-07T11:18:59.603Z,98007.97
2023-02-07T11:21:33.865Z,98004.00
2023-02-07T11:24:23.761Z,98000.47
2023-02-07T11:27:00.094Z,98000.19
2023-02-07T11:29:27.125Z,98000.94
2023-02-07T11:31:56.825Z,97994.34
2023-02-07T11:34:35.730Z,97992.50
2023-02-07T11:37:19.945Z,97984.72
2023-02-07T11:39:48.079Z,97977.78
2023-02-07T11:42:22.809Z,97980.34
2023-02-07T11:44:50.635Z,97981.09
2023-02-07T11:47:25.659Z,97977.34
2023-02-07T11:49:58.289Z,97972.59
2023-02-07T11:55:09.012Z,97961.09
2023-02-07T11:57:35.823Z,97962.22
2023-02-07T12:01:25.136Z,97952.19
2023-02-07T12:04:01.092Z,97952.34
2023-02-07T12:06:44.862Z,97944.97
2023-02-07T12:09:24.704Z,97947.94
2023-02-07T12:11:56.588Z,97950.50
2023-02-07T12:14:33.666Z,97945.44
2023-02-07T12:17:02.350Z,97938.41
2023-02-07T12:19:34.119Z,97928.88
2023-02-07T12:22:08.443Z,97929.31
2023-02-07T12:27:31.947Z,97929.66
2023-02-07T12:29:58.463Z,97936.03
2023-02-07T12:32:46.740Z,97933.69
2023-02-07T12:35:21.898Z,97927.25
2023-02-07T12:38:01.691Z,97922.75
2023-02-07T12:40:38.364Z,97917.88
2023-02-07T12:43:37.983Z,97916.72
2023-02-07T12:46:16.624Z,97918.09
2023-02-07T12:49:06.562Z,97915.28
2023-02-07T12:52:09.929Z,97914.22
2023-02-07T12:54:57.146Z,97898.59
2023-02-07T12:57:42.627Z,97907.94
2023-02-07T13:00:12.387Z,97900.09
2023-02-07T13:03:37.589Z,97897.25
2023-02-07T13:06:04.190Z,97896.44
2023-02-07T13:08:34.167Z,97897.09
2023-02-07T13:11:18.568Z,97893.13
2023-02-07T13:14:15.704Z,97898.66
2023-02-07T13:20:55.787Z,97893.66
2023-02-07T13:23:28.016Z,97891.69
2023-02-07T13:26:10.072Z,97901.97
2023-02-07T13:28:45.304Z,97907.78
2023-02-07T13:31:17.964Z,97911.59
2023-02-07T13:33:45.101Z,97906.97
2023-02-07T13:36:44.321Z,97909.38
2023-02-07T13:39:54.006Z,97905.22
2023-02-07T13:42:26.612Z,97912.06
2023-02-07T13:44:59.227Z,97910.41
2023-02-07T13:47:40.938Z,97904.19
2023-02-07T13:50:32.624Z,97903.31
2023-02-07T13:53:22.119Z,97905.66
2023-02-07T13:55:49.648Z,97913.63
2023-02-07T13:58:52.913Z,97923.59
2023-02-07T14:01:29.565Z,97919.78
2023-02-07T14:04:06.617Z,97919.53
2023-02-07T14:06:53.415Z,97912.59
2023-02-07T14:09:39.948Z,97912.97
2023-02-07T14:12:21.960Z,97920.38
2023-02-07T14:15:01.795Z,97918.03
2023-02-07T14:17:29.412Z,97924.78
2023-02-07T14:19:57.982Z,97922.34
2023-02-07T14:22:50.960Z,97911.19
2023-02-07T14:25:37.987Z,97907.66
2023-02-07T14:28:04.784Z,97910.78
2023-02-07T14:30:38.715Z,97911.97
2023-02-07T14:33:14.154Z,97910.47
2023-02-07T14:36:04.157Z,97912.47
2023-02-07T14:38:40.898Z,97910.50
2023-02-07T14:41:17.655Z,97901.53
2023-02-07T14:44:08.588Z,97907.19
2023-02-07T14:46:42.662Z,97912.72
2023-02-07T14:49:15.135Z,97912.25
2023-02-07T14:51:49.948Z,97917.47
2023-02-07T14:55:04.242Z,97909.53
2023-02-07T14:57:37.803Z,97912.19
2023-02-07T15:00:07.489Z,97917.63
2023-02-07T15:02:51.013Z,97913.38
2023-02-07T15:05:20.493Z,97918.06
2023-02-07T15:07:48.084Z,97912.72
2023-02-07T15:10:42.319Z,97924.72
2023-02-07T15:13:37.201Z,97926.00
2023-02-07T15:17:30.991Z,97925.47
2023-02-07T15:20:03.107Z,97937.81
2023-02-07T15:22:29.890Z,97936.13
2023-02-07T15:24:58.694Z,97931.09
2023-02-07T15:27:28.464Z,97942.53
2023-02-07T15:30:03.349Z,97937.59
2023-02-07T15:32:41.553Z,97945.75
2023-02-07T15:35:18.703Z,97940.81
2023-02-07T15:37:47.428Z,97946.16
2023-02-07T15:40:16.281Z,97945.31
2023-02-07T15:42:58.839Z,97956.78
2023-02-07T15:45:28.295Z,97955.25
2023-02-07T15:47:59.027Z,97955.34
2023-02-07T15:53:09.335Z,97960.00
2023-02-07T15:55:43.181Z,97966.03
2023-02-07T15:58:18.868Z,97963.63
2023-02-07T16:00:45.550Z,97971.84
2023-02-07T16:03:21.312Z,97963.50
2023-02-07T16:05:48.957Z,97962.81
2023-02-07T16:11:32.295Z,97977.28
2023-02-07T16:14:01.724Z,97985.19
2023-02-07T16:16:34.455Z,97991.53
2023-02-07T16:19:14.742Z,97988.03
2023-02-07T16:21:46.631Z,97995.84
2023-02-07T16:27:00.226Z,98003.16
2023-02-07T16:29:27.210Z,98015.38
2023-02-07T16:31:55.310Z,98012.13
2023-02-07T16:34:22.883Z,98016.56
2023-02-07T16:36:52.014Z,98018.25
2023-02-07T16:39:18.845Z,98020.16
2023-02-07T16:41:48.946Z,98025.50
2023-02-07T16:44:20.169Z,98036.91
2023-02-07T16:46:47.823Z,98037.88
2023-02-07T16:49:16.668Z,98037.97
2023-02-07T16:51:44.397Z,98048.38
2023-02-07T16:54:11.342Z,98048.31
2023-02-07T16:56:38.444Z,98056.31
2023-02-07T16:59:05.711Z,98055.66
2023-02-07T17:01:33.426Z,98058.28
2023-02-07T17:04:00.378Z,98062.59
2023-02-07T17:06:27.438Z,98062.69
2023-02-07T17:08:54.421Z,98062.72
2023-02-07T17:11:26.291Z,98068.91
2023-02-07T17:13:57.555Z,98066.31
2023-02-07T17:16:25.831Z,98074.16
2023-02-07T17:18:52.952Z,98076.84
2023-02-07T17:21:22.124Z,98079.41
2023-02-07T17:26:34.045Z,98089.16
2023-02-07T17:31:26.368Z,98087.72
2023-02-07T17:33:53.404Z,98087.75
2023-02-07T17:36:20.327Z,98105.19
2023-02-07T17:38:46.964Z,98100.03
2023-02-07T17:41:15.396Z,98096.59
2023-02-07T17:43:42.570Z,98095.78
2023-02-07T17:46:17.580Z,98092.25
2023-02-07T17:48:46.757Z,98095.97
2023-02-07T17:51:15.213Z,98093.22
2023-02-07T17:53:42.055Z,98107.16
2023-02-07T17:56:17.640Z,98102.13
2023-02-07T17:58:44.259Z,98108.31
2023-02-07T18:01:11.002Z,98103.13
2023-02-07T18:03:37.675Z,98106.59
2023-02-07T18:08:55.695Z,98113.63
2023-02-07T18:11:23.124Z,98108.50
2023-02-07T18:13:50.251Z,98111.13
2023-02-07T18:16:22.165Z,98115.53
2023-02-07T18:18:53.219Z,98107.75
2023-02-07T18:21:20.371Z,98103.44
2023-02-07T18:26:23.331Z,98099.13
2023-02-07T18:31:09.511Z,98102.72
2023-02-07T18:33:36.265Z,98109.75
2023-02-07T18:36:02.925Z,98109.75
2023-02-07T18:38:29.739Z,98105.44
2023-02-07T18:40:56.346Z,98103.56
2023-02-07T18:43:22.946Z,98108.94
2023-02-07T18:45:49.605Z,98109.81
2023-02-07T18:48:16.266Z,98108.13
2023-02-07T18:50:45.996Z,98102.97
2023-02-07T18:53:13.439Z,98112.56
2023-02-07T18:55:40.021Z,98106.56
2023-02-07T18:58:06.657Z,98103.94
2023-02-07T19:00:33.355Z,98107.41
2023-02-07T19:02:59.945Z,98111.81
2023-02-07T19:05:26.721Z,98113.63
2023-02-07T19:07:55.637Z,98110.16
2023-02-07T19:10:22.434Z,98107.59
2023-02-07T19:12:49.043Z,98111.09
2023-02-07T19:15:15.737Z,98109.34
2023-02-07T19:20:21.718Z,98117.28
2023-02-07T19:22:52.768Z,98124.28
2023-02-07T19:25:19.478Z,98111.34
2023-02-07T19:27:46.092Z,98115.78
2023-02-07T19:30:13.196Z,98131.44
2023-02-07T19:32:40.737Z,98132.34
2023-02-07T19:35:07.556Z,98133.28
2023-02-07T19:37:34.230Z,98141.94
2023-02-07T19:40:00.922Z,98147.13
2023-02-07T19:42:28.107Z,98142.78
2023-02-07T19:44:54.704Z,98142.84
2023-02-07T19:47:21.390Z,98148.03
2023-02-07T19:49:51.804Z,98142.84
2023-02-07T19:52:20.153Z,98148.06
2023-02-07T19:54:46.813Z,98145.56
2023-02-07T19:57:13.415Z,98148.09
2023-02-07T19:59:40.064Z,98155.22
2023-02-07T20:02:07.548Z,98161.31
2023-02-07T20:04:34.156Z,98149.25
2023-02-07T20:07:01.049Z,98155.34
2023-02-07T20:09:27.676Z,98156.25
2023-02-07T20:11:55.086Z,98155.41
2023-02-07T20:14:21.692Z,98153.69
2023-02-07T20:16:49.389Z,98153.75
2023-02-07T20:19:16.272Z,98159.94
2023-02-07T20:24:08.573Z,98153.84
2023-02-07T20:29:18.723Z,98163.41
2023-02-07T20:31:46.977Z,98162.69
2023-02-07T20:34:14.200Z,98165.38
2023-02-07T20:36:42.145Z,98164.53
2023-02-07T20:39:13.049Z,98164.63
2023-02-07T20:41:41.694Z,98170.69
2023-02-07T20:47:00.642Z,98174.16
2023-02-07T20:49:29.925Z,98169.81
2023-02-07T20:51:58.779Z,98168.84
2023-02-07T20:54:27.492Z,98165.44
2023-02-07T20:56:55.720Z,98166.41
2023-02-07T20:59:33.049Z,98166.41
2023-02-07T21:01:59.916Z,98167.34
2023-02-07T21:04:28.676Z,98172.59
2023-02-07T21:06:55.445Z,98171.72
2023-02-07T21:09:22.454Z,98175.22
2023-02-07T21:11:51.651Z,98176.09
2023-02-07T21:14:27.230Z,98173.53
2023-02-07T21:16:55.830Z,98171.84
2023-02-07T21:19:23.599Z,98177.94
2023-02-07T21:21:51.060Z,98174.47
2023-02-07T21:24:18.956Z,98171.03
2023-02-07T21:26:48.549Z,98175.34
2023-02-07T21:29:15.713Z,98167.63
2023-02-07T21:31:42.476Z,98162.50
2023-02-07T21:34:09.869Z,98171.28
2023-02-07T21:36:40.014Z,98166.13
2023-02-07T21:39:10.608Z,98174.78
2023-02-07T21:44:08.718Z,98181.88
2023-02-07T21:50:38.378Z,98182.81
2023-02-07T21:55:43.887Z,98191.38
2023-02-07T21:58:10.539Z,98192.22
2023-02-07T22:00:37.129Z,98190.50
2023-02-07T22:03:03.840Z,98206.03
2023-02-07T22:05:30.466Z,98194.06
2023-02-07T22:07:57.090Z,98195.84
2023-02-07T22:10:23.729Z,98200.19
2023-02-07T22:12:50.404Z,98199.31
2023-02-07T22:15:17.081Z,98204.53
2023-02-07T22:17:43.672Z,98203.63
2023-02-07T22:20:11.125Z,98201.06
2023-02-07T22:22:37.744Z,98202.88
2023-02-07T22:25:04.503Z,98202.94
2023-02-07T22:27:31.121Z,98210.69
2023-02-07T22:31:28.412Z,98208.97
2023-02-07T22:33:58.388Z,98208.13
2023-02-07T22:36:27.446Z,98213.31
2023-02-07T22:38:54.900Z,98209.00
2023-02-07T22:41:23.061Z,98208.16
2023-02-07T22:43:50.392Z,98210.75
2023-02-07T22:46:19.899Z,98214.22
2023-02-07T22:48:46.620Z,98212.50
2023-02-07T22:54:29.641Z,98203.94
2023-02-07T22:56:56.265Z,98203.97
2023-02-07T22:59:22.841Z,98216.13
2023-02-07T23:01:49.497Z,98205.75
2023-02-07T23:04:17.838Z,98207.44
2023-02-07T23:09:24.520Z,98217.88
2023-02-07T23:11:51.168Z,98210.16
2023-02-07T23:14:17.931Z,98211.03
2023-02-07T23:16:44.679Z,98223.16
2023-02-07T23:20:19.282Z,98218.81
2023-02-07T23:25:20.887Z,98223.16
2023-02-07T23:27:47.666Z,98220.59
2023-02-07T23:30:15.218Z,98224.88
2023-02-07T23:32:41.991Z,98230.16
2023-02-07T23:35:09.004Z,98237.94
2023-02-07T23:37:35.674Z,98231.91
2023-02-07T23:40:02.378Z,98234.53
2023-02-07T23:42:29.010Z,98233.69
2023-02-07T23:44:55.655Z,98229.41
2023-02-07T23:47:22.243Z,98232.84
2023-02-07T23:49:48.889Z,98225.06
2023-02-07T23:52:15.536Z,98227.66
2023-02-07T23:54:42.207Z,98230.25
2023-02-07T23:59:48.711Z,98240.63
